Terminal Aerodrome Forecast
Issued by NWS

Home | Current Version | Previous Version | Text Only | Print | Product List | Glossary On
Versions: 1 2 3 4 5 6 7 8 9 10 11 12 13 14 15 16 17 18 19 20 21 22 23 24 25 26 27 28 29 30 31 32 33 34 35 36 37 38 39 40 41 42 43 44 45 46 47 48 49 50
000
FTUS42 KMFL 251740
TAFFXE
TAF
KFXE 251740Z 2518/2618 14014G21KT P6SM SCT024 BKN030
     FM252200 15010KT P6SM VCSH SCT025 BKN250
     FM260400 14008KT P6SM VCSH SCT010 BKN020 BKN250
     FM260800 17008KT P6SM VCSH BKN009 BKN020
     FM261000 19007KT P6SM VCSH BKN009 OVC020
     FM261200 25006KT P6SM VCSH SCT010 OVC015
     FM261500 29008G15KT P6SM VCSH OVC025=

USA.gov is the U.S. government's official web portal to all federal, state and local government web resources and services.